METAR Data
IDs: Format: Raw Decoded Include TAF

Data at: 2157 UTC 24 Mar 2019

KHOU 242153Z 17011KT 10SM BKN023 BKN030 OVC055 24/18 A3005 RMK AO2 SLP179 BINOVC T02440183
KHOU 242135Z 15012KT 10SM BKN022 BKN030 BKN055 24/18 A3005 RMK AO2 T02390183
KHOU 242053Z 16010KT 10SM SCT024 BKN033 OVC060 24/18 A3006 RMK AO2 SLP182 BINOVC T02440183 56018
KHOU 241953Z 17010KT 10SM SCT024 BKN036 BKN060 BKN250 25/18 A3007 RMK AO2 SLP186 T02500178
KHOU 241853Z 17010KT 10SM FEW022 SCT038 BKN055 BKN250 24/18 A3009 RMK AO2 SLP193 T02440178
KHOU 241753Z 17010KT 10SM SCT019 BKN046 BKN055 BKN250 24/18 A3011 RMK AO2 RAB17E18 SLP200 P0000 60000 T02440178 10244 20167 58005
KHOU 241653Z 17010KT 10SM SCT020 SCT034 BKN046 BKN250 23/18 A3013 RMK AO2 SLP207 T02330178
KHOU 241553Z 19009KT 10SM SCT018 BKN024 OVC032 23/18 A3014 RMK AO2 SLP211 T02280178
KHOU 241453Z 16012KT 10SM BKN020 BKN070 BKN250 22/18 A3012 RMK AO2 SLP205 T02170178 53004
KHOU 241449Z 17008KT 10SM BKN020 BKN070 BKN250 22/18 A3012 RMK AO2
KHOU 241353Z 14008KT 7SM FEW030 SCT070 SCT250 19/17 A3011 RMK AO2 SLP199 T01940172
KHOU 241253Z 11004KT 5SM BR BKN022 BKN070 BKN250 18/16 A3011 RMK AO2 SLP202 T01780161
KHOU 241153Z 10004KT 8SM MIFG BKN022 BKN065 BKN250 17/16 A3010 RMK AO2 SLP197 T01720156 10172 20150 53005
KHOU 241138Z 12003KT 8SM MIFG BKN022 BKN065 BKN250 17/16 A3010 RMK AO2 T01670156
KHOU 241053Z 11004KT 9SM MIFG FEW022 SCT070 BKN250 16/14 A3009 RMK AO2 SLP192 T01560144
KHOU 240953Z 10004KT 9SM MIFG FEW035 SCT070 SCT250 15/14 A3008 RMK AO2 SLP192 T01500139
KHOU 240853Z 10003KT 9SM MIFG FEW070 SCT250 16/14 A3008 RMK AO2 SLP191 T01560144 57007
KHOU 240753Z 11003KT 10SM MIFG SCT250 17/15 A3009 RMK AO2 SLP193 T01670150
KHOU 240653Z 12004KT 10SM FEW075 BKN250 17/15 A3009 RMK AO2 SLP195 T01670150
KHOU 240553Z 13006KT 10SM FEW035 SCT075 OVC220 17/14 A3010 RMK AO2 SLP198 T01670144 10211 20167 402280139 58003
KHOU 240453Z 00000KT 10SM FEW080 BKN250 17/14 A3012 RMK AO2 SLP205 T01720144
KHOU 240353Z 13007KT 10SM SCT250 18/15 A3010 RMK AO2 SLP198 T01780150
KHOU 240253Z 14008KT 10SM FEW028 BKN250 19/14 A3011 RMK AO2 SLP201 T01890144 53002
KHOU 240153Z 14010KT 10SM FEW030 BKN250 19/14 A3010 RMK AO2 SLP197 T01890139
KHOU 240053Z 15008KT 10SM FEW018 SCT030 BKN075 BKN250 20/14 A3011 RMK AO2 SLP201 T02000139
KHOU 232353Z 15012KT 10SM FEW018 SCT030 BKN075 BKN250 21/14 A3011 RMK AO2 SLP199 T02110139 10228 20211 55001
KHOU 232253Z 14014KT 10SM FEW018 SCT030 BKN085 BKN250 22/14 A3010 RMK AO2 SLP197 T02170139
KHOU 232153Z 14013KT 10SM BKN035 BKN080 BKN250 22/14 A3010 RMK AO2 SLP196 T02220139
KHOU 232053Z 14015G21KT 10SM BKN033 BKN080 BKN250 22/14 A3011 RMK AO2 SLP200 T02220139 56015
KHOU 231953Z 17013KT 10SM BKN033 BKN080 BKN250 22/13 A3012 RMK AO2 SLP204 T02220133
KHOU 231853Z 14015KT 10SM FEW030 BKN080 BKN250 23/14 A3012 RMK AO2 SLP205 T02280139
KHOU 231753Z 16013KT 10SM SCT031 BKN085 BKN130 OVC250 22/14 A3015 RMK AO2 SLP215 T02220139 10228 20156 58001
KHOU 231653Z 15009KT 10SM SCT031 BKN085 OVC250 22/14 A3017 RMK AO2 SLP220 T02170139
KHOU 231553Z 15012G18KT 10SM FEW025 SCT085 BKN100 BKN250 22/14 A3015 RMK AO2 SLP216 T02220144
KHOU 231453Z 13010KT 10SM BKN080 BKN250 20/14 A3016 RMK AO2 SLP216 T02000144 51022
KHOU 231353Z 13007KT 10SM BKN080 BKN250 18/14 A3014 RMK AO2 SLP209 T01830144
KHOU 231253Z 13006KT 10SM SCT070 BKN200 BKN250 16/14 A3012 RMK AO2 SLP203 T01610139
KHOU 231153Z 14006KT 10SM SCT070 SCT200 BKN250 16/13 A3009 RMK AO2 SLP194 T01560133 10167 20139 53006
KHOU 231053Z 12006KT 10SM BKN070 OVC250 14/13 A3007 RMK AO2 SLP188 T01440128